Weather reports worldwide

Advertisment
Cairnwell, United Kingdom (3072): temperature & dewpoint: 16.07.2019 03:00:00 - 22.07.2019 03:00:00 (BST)Cairnwell, United Kingdom (3072): wind speed & gusts: 16.07.2019 03:00:00 - 22.07.2019 03:00:00 (BST)Cairnwell, United Kingdom (3072): wind direction: 16.07.2019 03:00:00 - 22.07.2019 03:00:00 (BST)
Date & Time tt [°C] td [°C] ff [km/h] ff [kn] fx [km/h] fx [kn] dd
22.07.2019 03:00:00 10,7 10,7 26 14 54 29 S
22.07.2019 02:00:00 10,8 10,7 41 22 61 33 S
22.07.2019 01:00:00 10,8 10,8 46 25 59 32 S
22.07.2019 00:00:00 10,9 10,9 46 25 70 38 S
21.07.2019 23:00:00 11,1 11,1 63 34 80 43 S
21.07.2019 22:00:00 11,0 11,0 68 37 81 44 S
21.07.2019 21:00:00 10,7 10,7 59 32 80 43 S
21.07.2019 20:00:00 10,3 10,3 65 35 83 45 S
21.07.2019 19:00:00 9,6 9,6 63 34 81 44 S
21.07.2019 18:00:00 9,2 9,2 59 32 74 40 S
21.07.2019 17:00:00 9,2 9,2 54 29 70 38 SSW
21.07.2019 16:00:00 9,2 8,9 57 31 76 41 S
21.07.2019 15:00:00 9,4 8,9 55 30 68 37 SSW
21.07.2019 14:00:00 9,2 8,1 57 31 68 37 SSW
21.07.2019 13:00:00 9,7 6,8 41 22 54 29 SW
21.07.2019 12:00:00 9,1 5,6 37 20 55 30 SW
21.07.2019 11:00:00 8,4 6,7 41 22 57 31 SW
21.07.2019 10:00:00 8,0 7,8 46 25 57 31 WSW
21.07.2019 09:00:00 8,0 7,6 31 17 54 29 SW
21.07.2019 08:00:00 7,9 7,9 35 19 55 30 WSW
21.07.2019 07:00:00 7,6 7,6 34 18 - - SW
21.07.2019 06:00:00 7,6 7,6 31 17 46 25 WSW
21.07.2019 05:00:00 7,5 7,5 26 14 48 26 SW
21.07.2019 04:00:00 7,4 7,4 34 18 54 29 WSW
21.07.2019 03:00:00 7,5 7,5 39 21 50 27 WSW
21.07.2019 02:00:00 7,3 6,6 18 10 54 29 SW
21.07.2019 01:00:00 8,3 5,4 31 17 57 31 W
21.07.2019 00:00:00 7,5 5,3 46 25 72 39 W
20.07.2019 23:00:00 7,8 4,8 61 33 74 40 WNW
20.07.2019 22:00:00 8,4 6,0 61 33 81 44 WNW
20.07.2019 21:00:00 8,9 6,8 61 33 72 39 WNW
20.07.2019 20:00:00 10,3 6,6 50 27 63 34 WNW
20.07.2019 19:00:00 10,7 6,8 55 30 65 35 WNW
20.07.2019 18:00:00 11,2 7,2 50 27 63 34 NW
20.07.2019 17:00:00 10,3 8,3 55 30 65 35 WNW
20.07.2019 16:00:00 10,8 9,0 52 28 61 33 WNW
20.07.2019 15:00:00 11,1 10,0 42 23 61 33 WNW
20.07.2019 14:00:00 11,7 8,6 46 25 55 30 WNW
20.07.2019 13:00:00 11,9 8,2 21 11 46 25 NNW
20.07.2019 12:00:00 10,1 8,5 37 20 - - NW
20.07.2019 11:00:00 10,3 8,5 28 15 - - NW
20.07.2019 10:00:00 10,5 9,5 18 10 - - WNW
20.07.2019 09:00:00 10,6 10,0 5 3 - - W
20.07.2019 08:00:00 10,4 10,2 9 5 - - SSW
20.07.2019 07:00:00 10,3 10,3 11 6 - - SW
20.07.2019 06:00:00 10,4 10,4 11 6 - - SSW
20.07.2019 05:00:00 10,4 10,4 15 8 - - SSW
20.07.2019 04:00:00 10,2 10,2 13 7 - - S
20.07.2019 03:00:00 10,2 10,2 15 8 - - ESE
20.07.2019 02:00:00 9,9 9,9 16 9 - - ESE
20.07.2019 01:00:00 9,6 9,6 26 14 - - ESE
20.07.2019 00:00:00 9,1 9,1 31 17 - - ESE
19.07.2019 23:00:00 9,2 9,2 31 17 54 29 ESE
19.07.2019 22:00:00 9,0 9,0 34 18 - - SE
19.07.2019 21:00:00 9,2 9,2 26 14 52 28 SE
19.07.2019 20:00:00 9,1 9,1 34 18 - - SE
19.07.2019 19:00:00 9,0 9,0 31 17 - - SE
19.07.2019 18:00:00 9,1 9,1 35 19 54 29 SE
19.07.2019 17:00:00 10,3 8,3 26 14 - - SE
19.07.2019 16:00:00 10,7 8,4 26 14 - - S
19.07.2019 15:00:00 10,6 7,1 34 18 46 25 S
19.07.2019 14:00:00 10,1 7,4 22 12 48 26 SW
19.07.2019 13:00:00 10,0 6,7 28 15 - - S
19.07.2019 12:00:00 9,2 5,8 37 20 50 27 SW
19.07.2019 11:00:00 9,1 7,0 31 17 54 29 SSW
19.07.2019 10:00:00 7,8 7,6 34 18 50 27 SSW
19.07.2019 09:00:00 7,8 7,6 31 17 46 25 SSW
19.07.2019 08:00:00 7,3 7,3 35 19 48 26 SSW
19.07.2019 07:00:00 7,0 7,0 41 22 52 28 SSW
19.07.2019 06:00:00 7,0 7,0 37 20 48 26 SSW
19.07.2019 05:00:00 6,9 6,9 37 20 54 29 SW
19.07.2019 04:00:00 7,1 7,1 42 23 55 30 SW
19.07.2019 03:00:00 7,1 7,1 44 24 55 30 SW
19.07.2019 02:00:00 7,2 7,2 39 21 46 25 SW
19.07.2019 01:00:00 6,9 6,9 35 19 - - SW
19.07.2019 00:00:00 6,9 6,9 39 21 48 26 WSW
18.07.2019 23:00:00 7,1 7,1 39 21 52 28 WSW
18.07.2019 22:00:00 7,7 7,0 44 24 67 36 W
18.07.2019 21:00:00 7,6 7,3 44 24 67 36 W
18.07.2019 20:00:00 8,3 7,1 42 23 61 33 W
18.07.2019 19:00:00 8,4 6,9 37 20 83 45 WSW
18.07.2019 18:00:00 9,0 6,3 50 27 80 43 WSW
18.07.2019 17:00:00 9,1 6,5 52 28 68 37 W
18.07.2019 16:00:00 8,6 7,0 57 31 78 42 WSW
18.07.2019 15:00:00 9,5 6,9 57 31 72 39 WSW
18.07.2019 14:00:00 8,8 7,0 44 24 65 35 WSW
18.07.2019 13:00:00 8,9 7,1 42 23 63 34 WSW
18.07.2019 12:00:00 8,0 7,9 37 20 57 31 SW
18.07.2019 11:00:00 7,7 7,2 22 12 - - WSW
18.07.2019 10:00:00 7,7 6,1 29 16 48 26 WSW
18.07.2019 09:00:00 7,1 6,4 28 15 - - WSW
18.07.2019 08:00:00 6,9 6,8 16 9 - - SW
18.07.2019 07:00:00 7,5 5,4 42 23 57 31 WNW
18.07.2019 06:00:00 6,6 6,0 44 24 59 32 W
18.07.2019 05:00:00 7,1 5,8 50 27 59 32 WNW
18.07.2019 04:00:00 7,0 5,7 39 21 55 30 WNW
18.07.2019 03:00:00 7,5 6,0 41 22 52 28 WNW
18.07.2019 02:00:00 8,4 8,4 29 16 - - WNW
18.07.2019 01:00:00 9,9 9,9 15 8 - - S
18.07.2019 00:00:00 9,9 9,9 24 13 - - SSW
17.07.2019 23:00:00 9,7 9,7 28 15 - - S
17.07.2019 22:00:00 9,7 9,7 39 21 48 26 SSW
17.07.2019 21:00:00 9,6 9,6 39 21 46 25 S
17.07.2019 20:00:00 9,5 9,5 39 21 52 28 S
17.07.2019 19:00:00 9,2 9,2 42 23 65 35 SSW
17.07.2019 18:00:00 9,1 9,1 54 29 78 42 SSW
17.07.2019 17:00:00 9,2 9,2 59 32 80 43 SSW
17.07.2019 16:00:00 9,3 9,3 57 31 70 38 SSW
17.07.2019 15:00:00 9,2 9,2 59 32 83 45 S
17.07.2019 14:00:00 8,8 8,8 55 30 70 38 SSW
17.07.2019 13:00:00 9,2 9,2 61 33 74 40 SSW
17.07.2019 12:00:00 9,4 9,4 63 34 76 41 SSW
17.07.2019 11:00:00 9,5 9,5 54 29 68 37 S
17.07.2019 10:00:00 9,7 9,7 55 30 67 36 SSW
17.07.2019 09:00:00 9,6 9,6 54 29 70 38 SSW
17.07.2019 08:00:00 9,8 9,8 44 24 52 28 S
17.07.2019 07:00:00 9,8 9,8 31 17 - - SSW
17.07.2019 06:00:00 9,7 9,7 28 15 - - SSW
17.07.2019 05:00:00 9,6 9,6 29 16 - - SSW
17.07.2019 04:00:00 9,4 9,4 24 13 - - SSW
17.07.2019 03:00:00 9,9 8,2 22 12 - - S
17.07.2019 02:00:00 10,7 7,0 18 10 - - SSW
17.07.2019 01:00:00 11,1 6,7 16 9 - - SW
17.07.2019 00:00:00 11,6 6,8 11 6 - - SW
16.07.2019 23:00:00 11,5 5,9 15 8 - - W
16.07.2019 22:00:00 12,4 6,9 22 12 - - W
16.07.2019 21:00:00 12,8 7,6 16 9 - - W
16.07.2019 20:00:00 13,2 8,0 26 14 - - WSW
16.07.2019 19:00:00 13,8 6,4 24 13 - - WSW
16.07.2019 18:00:00 13,9 5,7 28 15 - - WSW
16.07.2019 17:00:00 13,9 6,9 31 17 48 26 W
16.07.2019 16:00:00 13,5 8,3 31 17 - - WSW
16.07.2019 15:00:00 14,2 7,9 28 15 46 25 WSW
16.07.2019 14:00:00 13,5 8,7 28 15 - - WSW
16.07.2019 13:00:00 12,9 8,0 22 12 - - WSW
16.07.2019 12:00:00 13,2 6,9 22 12 - - SW
16.07.2019 11:00:00 13,2 6,5 8 4 - - WNW
16.07.2019 10:00:00 12,4 5,7 8 4 - - SSW
16.07.2019 09:00:00 12,0 7,2 8 4 - - WSW
16.07.2019 08:00:00 11,5 5,8 13 7 - - W
16.07.2019 07:00:00 11,2 8,7 5 3 - - W
16.07.2019 06:00:00 11,4 9,8 8 4 - - W
16.07.2019 05:00:00 10,8 10,3 4 2 - - NNW
16.07.2019 04:00:00 10,8 10,5 8 4 - - NW
16.07.2019 03:00:00 11,1 11,0 11 6 - - W

tt = temperature
td = dewpoint
ff = wind speed
fx = gusts
dd = wind direction

Next stations